sensor_id;sensor_type;location;lat;lon;timestamp;P1;durP1;ratioP1;P2;durP2;ratioP2
15114;SDS011;7658;51.456;7.622;2024-01-15T00:00:07;48.23;;;29.13;;
15114;SDS011;7658;51.456;7.622;2024-01-15T00:02:33;46.13;;;28.93;;
15114;SDS011;7658;51.456;7.622;2024-01-15T00:04:59;50.63;;;28.53;;
15114;SDS011;7658;51.456;7.622;2024-01-15T00:07:25;45.73;;;28.03;;
15114;SDS011;7658;51.456;7.622;2024-01-15T00:09:51;46.93;;;27.47;;
15114;SDS011;7658;51.456;7.622;2024-01-15T00:12:16;49.37;;;28.13;;
15114;SDS011;7658;51.456;7.622;2024-01-15T00:14:42;49.83;;;30.77;;
15114;SDS011;7658;51.456;7.622;2024-01-15T00:17:08;47.77;;;28.73;;
15114;SDS011;7658;51.456;7.622;2024-01-15T00:19:34;48.13;;;29.30;;
15114;SDS011;7658;51.456;7.622;2024-01-15T00:21:59;52.37;;;29.57;;
15114;SDS011;7658;51.456;7.622;2024-01-15T00:24:25;53.97;;;30.43;;
15114;SDS011;7658;51.456;7.622;2024-01-15T00:26:51;46.37;;;28.97;;
15114;SDS011;7658;51.456;7.622;2024-01-15T00:29:18;56.17;;;30.50;;
15114;SDS011;7658;51.456;7.622;2024-01-15T00:31:44;57.37;;;30.83;;
15114;SDS011;7658;51.456;7.622;2024-01-15T00:34:09;55.30;;;31.83;;
15114;SDS011;7658;51.456;7.622;2024-01-15T00:36:35;54.33;;;31.83;;
15114;SDS011;7658;51.456;7.622;2024-01-15T00:39:01;58.27;;;33.87;;
15114;SDS011;7658;51.456;7.622;2024-01-15T00:41:30;57.30;;;32.90;;
15114;SDS011;7658;51.456;7.622;2024-01-15T00:43:56;55.93;;;31.63;;
15114;SDS011;7658;51.456;7.622;2024-01-15T00:46:22;57.70;;;32.30;;
15114;SDS011;7658;51.456;7.622;2024-01-15T00:48:47;56.90;;;33.57;;
15114;SDS011;7658;51.456;7.622;2024-01-15T00:51:13;54.07;;;31.30;;
15114;SDS011;7658;51.456;7.622;2024-01-15T00:53:39;50.87;;;31.10;;
15114;SDS011;7658;51.456;7.622;2024-01-15T00:56:05;49.87;;;31.27;;
15114;SDS011;7658;51.456;7.622;2024-01-15T00:58:31;58.10;;;33.63;;
15114;SDS011;7658;51.456;7.622;2024-01-15T01:00:57;53.53;;;30.67;;
15114;SDS011;7658;51.456;7.622;2024-01-15T01:03:23;58.17;;;33.63;;
15114;SDS011;7658;51.456;7.622;2024-01-15T01:05:48;52.67;;;33.60;;
15114;SDS011;7658;51.456;7.622;2024-01-15T01:08:17;58.57;;;32.97;;
15114;SDS011;7658;51.456;7.622;2024-01-15T01:10:43;55.83;;;32.13;;
15114;SDS011;7658;51.456;7.622;2024-01-15T01:13:09;52.30;;;32.20;;
15114;SDS011;7658;51.456;7.622;2024-01-15T01:15:35;57.30;;;34.37;;
15114;SDS011;7658;51.456;7.622;2024-01-15T01:18:00;53.10;;;31.43;;
15114;SDS011;7658;51.456;7.622;2024-01-15T01:20:26;57.63;;;33.57;;
15114;SDS011;7658;51.456;7.622;2024-01-15T01:22:52;52.80;;;32.17;;
15114;SDS011;7658;51.456;7.622;2024-01-15T01:25:18;52.97;;;31.30;;
15114;SDS011;7658;51.456;7.622;2024-01-15T01:27:44;52.57;;;32.70;;
15114;SDS011;7658;51.456;7.622;2024-01-15T01:30:09;57.13;;;30.77;;
15114;SDS011;7658;51.456;7.622;2024-01-15T01:32:35;54.53;;;31.83;;
15114;SDS011;7658;51.456;7.622;2024-01-15T01:35:01;56.20;;;33.13;;
15114;SDS011;7658;51.456;7.622;2024-01-15T01:37:27;54.70;;;31.00;;
15114;SDS011;7658;51.456;7.622;2024-01-15T01:39:53;57.13;;;32.00;;
15114;SDS011;7658;51.456;7.622;2024-01-15T01:42:19;54.07;;;32.40;;
15114;SDS011;7658;51.456;7.622;2024-01-15T01:44:44;54.20;;;32.00;;
15114;SDS011;7658;51.456;7.622;2024-01-15T01:47:10;52.03;;;31.43;;
15114;SDS011;7658;51.456;7.622;2024-01-15T01:49:36;56.57;;;31.97;;
15114;SDS011;7658;51.456;7.622;2024-01-15T01:52:02;50.43;;;30.60;;
15114;SDS011;7658;51.456;7.622;2024-01-15T01:54:31;51.43;;;32.87;;
15114;SDS011;7658;51.456;7.622;2024-01-15T01:56:58;57.50;;;33.47;;
15114;SDS011;7658;51.456;7.622;2024-01-15T01:59:27;55.37;;;32.17;;
15114;SDS011;7658;51.456;7.622;2024-01-15T02:01:54;56.37;;;31.83;;
15114;SDS011;7658;51.456;7.622;2024-01-15T02:04:21;58.60;;;31.67;;
15114;SDS011;7658;51.456;7.622;2024-01-15T02:06:49;57.63;;;32.03;;
15114;SDS011;7658;51.456;7.622;2024-01-15T02:09:16;50.47;;;30.53;;
15114;SDS011;7658;51.456;7.622;2024-01-15T02:11:48;51.43;;;30.97;;
15114;SDS011;7658;51.456;7.622;2024-01-15T02:14:14;56.40;;;30.57;;
15114;SDS011;7658;51.456;7.622;2024-01-15T02:16:40;56.57;;;30.97;;
15114;SDS011;7658;51.456;7.622;2024-01-15T02:19:06;48.17;;;29.90;;
15114;SDS011;7658;51.456;7.622;2024-01-15T02:21:32;57.03;;;31.10;;
15114;SDS011;7658;51.456;7.622;2024-01-15T02:23:58;48.83;;;29.53;;
15114;SDS011;7658;51.456;7.622;2024-01-15T02:26:24;49.60;;;28.90;;
15114;SDS011;7658;51.456;7.622;2024-01-15T02:28:51;50.80;;;28.30;;
15114;SDS011;7658;51.456;7.622;2024-01-15T02:31:17;48.97;;;29.00;;
15114;SDS011;7658;51.456;7.622;2024-01-15T02:33:43;41.93;;;26.53;;
15114;SDS011;7658;51.456;7.622;2024-01-15T02:36:11;55.67;;;28.43;;
15114;SDS011;7658;51.456;7.622;2024-01-15T02:38:37;51.93;;;27.20;;
15114;SDS011;7658;51.456;7.622;2024-01-15T02:41:03;42.60;;;27.00;;
15114;SDS011;7658;51.456;7.622;2024-01-15T02:43:29;40.17;;;25.00;;
15114;SDS011;7658;51.456;7.622;2024-01-15T02:45:55;42.90;;;26.10;;
15114;SDS011;7658;51.456;7.622;2024-01-15T02:48:20;38.37;;;27.20;;
15114;SDS011;7658;51.456;7.622;2024-01-15T02:50:46;40.20;;;26.50;;
15114;SDS011;7658;51.456;7.622;2024-01-15T02:53:12;44.13;;;25.33;;
15114;SDS011;7658;51.456;7.622;2024-01-15T02:55:38;41.73;;;26.83;;
15114;SDS011;7658;51.456;7.622;2024-01-15T02:58:03;41.57;;;26.10;;
15114;SDS011;7658;51.456;7.622;2024-01-15T03:00:29;38.70;;;24.83;;
15114;SDS011;7658;51.456;7.622;2024-01-15T03:02:55;42.77;;;26.53;;
15114;SDS011;7658;51.456;7.622;2024-01-15T03:05:21;42.67;;;26.40;;
15114;SDS011;7658;51.456;7.622;2024-01-15T03:07:47;51.23;;;26.07;;
15114;SDS011;7658;51.456;7.622;2024-01-15T03:10:13;42.50;;;27.53;;
15114;SDS011;7658;51.456;7.622;2024-01-15T03:12:38;45.03;;;26.03;;
15114;SDS011;7658;51.456;7.622;2024-01-15T03:15:04;50.70;;;25.63;;
15114;SDS011;7658;51.456;7.622;2024-01-15T03:17:30;48.17;;;26.87;;
15114;SDS011;7658;51.456;7.622;2024-01-15T03:19:56;44.77;;;26.80;;
15114;SDS011;7658;51.456;7.622;2024-01-15T03:22:22;44.80;;;26.37;;
15114;SDS011;7658;51.456;7.622;2024-01-15T03:24:48;38.13;;;25.60;;
15114;SDS011;7658;51.456;7.622;2024-01-15T03:27:13;47.40;;;27.47;;
15114;SDS011;7658;51.456;7.622;2024-01-15T03:29:40;47.03;;;27.17;;
15114;SDS011;7658;51.456;7.622;2024-01-15T03:32:06;44.50;;;27.50;;
15114;SDS011;7658;51.456;7.622;2024-01-15T03:34:32;39.57;;;25.73;;
15114;SDS011;7658;51.456;7.622;2024-01-15T03:36:57;39.17;;;25.77;;
15114;SDS011;7658;51.456;7.622;2024-01-15T03:39:24;46.43;;;26.53;;
15114;SDS011;7658;51.456;7.622;2024-01-15T03:41:50;44.20;;;26.37;;
15114;SDS011;7658;51.456;7.622;2024-01-15T03:44:16;42.97;;;26.00;;
15114;SDS011;7658;51.456;7.622;2024-01-15T03:46:41;41.67;;;26.30;;
15114;SDS011;7658;51.456;7.622;2024-01-15T03:49:07;41.47;;;26.33;;
15114;SDS011;7658;51.456;7.622;2024-01-15T03:51:33;43.60;;;25.73;;
15114;SDS011;7658;51.456;7.622;2024-01-15T03:53:59;44.87;;;26.50;;
15114;SDS011;7658;51.456;7.622;2024-01-15T03:56:24;42.50;;;27.83;;
15114;SDS011;7658;51.456;7.622;2024-01-15T03:58:50;39.53;;;24.23;;
15114;SDS011;7658;51.456;7.622;2024-01-15T04:01:16;43.40;;;25.10;;
15114;SDS011;7658;51.456;7.622;2024-01-15T04:03:41;40.53;;;26.20;;
15114;SDS011;7658;51.456;7.622;2024-01-15T04:06:07;45.13;;;25.73;;
15114;SDS011;7658;51.456;7.622;2024-01-15T04:08:33;41.47;;;26.63;;
15114;SDS011;7658;51.456;7.622;2024-01-15T04:10:59;43.50;;;25.70;;
15114;SDS011;7658;51.456;7.622;2024-01-15T04:13:26;41.77;;;24.63;;
15114;SDS011;7658;51.456;7.622;2024-01-15T04:15:52;42.00;;;26.97;;
15114;SDS011;7658;51.456;7.622;2024-01-15T04:18:18;44.97;;;25.40;;
15114;SDS011;7658;51.456;7.622;2024-01-15T04:20:43;33.67;;;24.00;;
15114;SDS011;7658;51.456;7.622;2024-01-15T04:23:10;43.17;;;23.17;;
15114;SDS011;7658;51.456;7.622;2024-01-15T04:25:35;37.07;;;24.23;;
15114;SDS011;7658;51.456;7.622;2024-01-15T04:28:01;35.20;;;23.77;;
15114;SDS011;7658;51.456;7.622;2024-01-15T04:30:27;31.27;;;22.03;;
15114;SDS011;7658;51.456;7.622;2024-01-15T04:32:53;33.07;;;23.50;;
15114;SDS011;7658;51.456;7.622;2024-01-15T04:35:18;34.20;;;22.63;;
15114;SDS011;7658;51.456;7.622;2024-01-15T04:37:44;32.17;;;22.87;;
15114;SDS011;7658;51.456;7.622;2024-01-15T04:40:10;36.63;;;23.73;;
15114;SDS011;7658;51.456;7.622;2024-01-15T04:42:36;37.33;;;23.23;;
15114;SDS011;7658;51.456;7.622;2024-01-15T04:45:02;34.57;;;21.90;;
15114;SDS011;7658;51.456;7.622;2024-01-15T04:47:28;32.20;;;22.67;;
15114;SDS011;7658;51.456;7.622;2024-01-15T04:49:54;38.73;;;21.77;;
15114;SDS011;7658;51.456;7.622;2024-01-15T04:52:20;35.03;;;20.53;;
15114;SDS011;7658;51.456;7.622;2024-01-15T04:54:46;34.30;;;23.13;;
15114;SDS011;7658;51.456;7.622;2024-01-15T04:57:11;38.20;;;22.53;;
15114;SDS011;7658;51.456;7.622;2024-01-15T04:59:37;32.43;;;21.03;;
15114;SDS011;7658;51.456;7.622;2024-01-15T05:02:03;36.23;;;21.97;;
15114;SDS011;7658;51.456;7.622;2024-01-15T05:04:28;30.87;;;21.93;;
15114;SDS011;7658;51.456;7.622;2024-01-15T05:06:55;32.30;;;21.40;;
15114;SDS011;7658;51.456;7.622;2024-01-15T05:09:21;34.93;;;21.03;;
15114;SDS011;7658;51.456;7.622;2024-01-15T05:11:46;33.10;;;22.40;;
15114;SDS011;7658;51.456;7.622;2024-01-15T05:14:12;33.57;;;20.40;;
15114;SDS011;7658;51.456;7.622;2024-01-15T05:16:38;34.90;;;21.37;;
15114;SDS011;7658;51.456;7.622;2024-01-15T05:19:06;27.90;;;19.77;;
15114;SDS011;7658;51.456;7.622;2024-01-15T05:21:32;27.07;;;19.23;;
15114;SDS011;7658;51.456;7.622;2024-01-15T05:23:58;26.77;;;20.50;;
15114;SDS011;7658;51.456;7.622;2024-01-15T05:26:24;28.33;;;19.17;;
15114;SDS011;7658;51.456;7.622;2024-01-15T05:28:49;25.60;;;19.63;;
15114;SDS011;7658;51.456;7.622;2024-01-15T05:31:15;32.30;;;20.57;;
15114;SDS011;7658;51.456;7.622;2024-01-15T05:33:41;34.60;;;20.53;;
15114;SDS011;7658;51.456;7.622;2024-01-15T05:36:07;28.97;;;20.07;;
15114;SDS011;7658;51.456;7.622;2024-01-15T05:38:32;29.37;;;19.23;;
15114;SDS011;7658;51.456;7.622;2024-01-15T05:40:58;34.97;;;20.23;;
15114;SDS011;7658;51.456;7.622;2024-01-15T05:43:24;31.33;;;20.23;;
15114;SDS011;7658;51.456;7.622;2024-01-15T05:45:50;32.53;;;21.23;;
15114;SDS011;7658;51.456;7.622;2024-01-15T05:48:15;33.50;;;20.53;;
15114;SDS011;7658;51.456;7.622;2024-01-15T05:50:41;32.17;;;20.23;;
15114;SDS011;7658;51.456;7.622;2024-01-15T05:53:07;33.77;;;21.70;;
15114;SDS011;7658;51.456;7.622;2024-01-15T05:55:33;33.33;;;20.80;;
15114;SDS011;7658;51.456;7.622;2024-01-15T05:58:00;33.97;;;21.90;;
15114;SDS011;7658;51.456;7.622;2024-01-15T06:00:25;36.73;;;21.57;;
15114;SDS011;7658;51.456;7.622;2024-01-15T06:02:51;30.83;;;22.33;;
15114;SDS011;7658;51.456;7.622;2024-01-15T06:05:17;35.30;;;20.50;;
15114;SDS011;7658;51.456;7.622;2024-01-15T06:07:43;32.63;;;22.07;;
15114;SDS011;7658;51.456;7.622;2024-01-15T06:10:09;34.03;;;22.33;;
15114;SDS011;7658;51.456;7.622;2024-01-15T06:12:35;36.30;;;22.17;;
15114;SDS011;7658;51.456;7.622;2024-01-15T06:15:00;28.17;;;19.70;;
15114;SDS011;7658;51.456;7.622;2024-01-15T06:17:27;33.23;;;22.03;;
15114;SDS011;7658;51.456;7.622;2024-01-15T06:19:53;34.70;;;22.07;;
15114;SDS011;7658;51.456;7.622;2024-01-15T06:22:18;29.87;;;20.33;;
15114;SDS011;7658;51.456;7.622;2024-01-15T06:24:44;28.03;;;20.60;;
15114;SDS011;7658;51.456;7.622;2024-01-15T06:27:10;29.00;;;20.97;;
15114;SDS011;7658;51.456;7.622;2024-01-15T06:29:37;31.37;;;20.40;;
15114;SDS011;7658;51.456;7.622;2024-01-15T06:32:03;32.07;;;19.67;;
15114;SDS011;7658;51.456;7.622;2024-01-15T06:34:29;35.40;;;22.07;;
15114;SDS011;7658;51.456;7.622;2024-01-15T06:36:55;31.83;;;20.67;;
15114;SDS011;7658;51.456;7.622;2024-01-15T06:39:21;30.00;;;19.80;;
15114;SDS011;7658;51.456;7.622;2024-01-15T06:41:47;34.83;;;21.53;;
15114;SDS011;7658;51.456;7.622;2024-01-15T06:44:13;28.23;;;19.97;;
15114;SDS011;7658;51.456;7.622;2024-01-15T06:46:42;27.27;;;18.90;;
15114;SDS011;7658;51.456;7.622;2024-01-15T06:49:08;27.37;;;19.80;;
15114;SDS011;7658;51.456;7.622;2024-01-15T06:51:35;28.37;;;19.57;;
15114;SDS011;7658;51.456;7.622;2024-01-15T06:54:01;24.93;;;19.10;;
15114;SDS011;7658;51.456;7.622;2024-01-15T06:56:27;27.17;;;19.73;;
15114;SDS011;7658;51.456;7.622;2024-01-15T06:58:53;29.20;;;20.27;;
15114;SDS011;7658;51.456;7.622;2024-01-15T07:01:18;33.73;;;20.80;;
15114;SDS011;7658;51.456;7.622;2024-01-15T07:03:44;26.83;;;18.60;;
15114;SDS011;7658;51.456;7.622;2024-01-15T07:06:10;25.60;;;18.53;;
15114;SDS011;7658;51.456;7.622;2024-01-15T07:08:36;38.37;;;21.10;;
15114;SDS011;7658;51.456;7.622;2024-01-15T07:11:03;26.57;;;19.80;;
15114;SDS011;7658;51.456;7.622;2024-01-15T07:13:30;31.87;;;20.00;;
15114;SDS011;7658;51.456;7.622;2024-01-15T07:15:56;37.20;;;20.00;;
15114;SDS011;7658;51.456;7.622;2024-01-15T07:18:21;33.80;;;20.90;;
15114;SDS011;7658;51.456;7.622;2024-01-15T07:20:48;36.50;;;20.97;;
15114;SDS011;7658;51.456;7.622;2024-01-15T07:23:14;26.67;;;19.33;;
15114;SDS011;7658;51.456;7.622;2024-01-15T07:25:40;29.57;;;21.00;;
15114;SDS011;7658;51.456;7.622;2024-01-15T07:28:05;26.13;;;19.47;;
15114;SDS011;7658;51.456;7.622;2024-01-15T07:30:31;31.03;;;20.53;;
15114;SDS011;7658;51.456;7.622;2024-01-15T07:32:57;29.40;;;19.83;;
15114;SDS011;7658;51.456;7.622;2024-01-15T07:35:23;28.90;;;20.43;;
15114;SDS011;7658;51.456;7.622;2024-01-15T07:37:48;30.60;;;19.73;;
15114;SDS011;7658;51.456;7.622;2024-01-15T07:40:14;30.57;;;20.73;;
15114;SDS011;7658;51.456;7.622;2024-01-15T07:42:41;26.77;;;20.37;;
15114;SDS011;7658;51.456;7.622;2024-01-15T07:45:08;24.97;;;19.43;;
15114;SDS011;7658;51.456;7.622;2024-01-15T07:47:34;25.80;;;19.70;;
15114;SDS011;7658;51.456;7.622;2024-01-15T07:50:00;26.00;;;19.93;;
15114;SDS011;7658;51.456;7.622;2024-01-15T07:52:26;29.30;;;20.87;;
15114;SDS011;7658;51.456;7.622;2024-01-15T07:54:52;28.77;;;19.07;;
15114;SDS011;7658;51.456;7.622;2024-01-15T07:57:18;30.30;;;20.13;;
15114;SDS011;7658;51.456;7.622;2024-01-15T07:59:44;28.10;;;20.97;;
15114;SDS011;7658;51.456;7.622;2024-01-15T08:02:09;29.70;;;20.93;;
15114;SDS011;7658;51.456;7.622;2024-01-15T08:04:36;25.50;;;20.33;;
15114;SDS011;7658;51.456;7.622;2024-01-15T08:07:03;23.47;;;19.00;;
15114;SDS011;7658;51.456;7.622;2024-01-15T08:09:30;24.63;;;19.57;;
15114;SDS011;7658;51.456;7.622;2024-01-15T08:11:56;25.47;;;19.17;;
15114;SDS011;7658;51.456;7.622;2024-01-15T08:14:22;22.57;;;18.10;;
15114;SDS011;7658;51.456;7.622;2024-01-15T08:16:48;26.47;;;19.20;;
15114;SDS011;7658;51.456;7.622;2024-01-15T08:19:14;24.83;;;17.63;;
15114;SDS011;7658;51.456;7.622;2024-01-15T08:21:39;20.37;;;18.17;;
15114;SDS011;7658;51.456;7.622;2024-01-15T08:24:05;26.10;;;18.23;;
15114;SDS011;7658;51.456;7.622;2024-01-15T08:26:31;22.70;;;16.30;;
15114;SDS011;7658;51.456;7.622;2024-01-15T08:28:57;20.63;;;17.27;;
15114;SDS011;7658;51.456;7.622;2024-01-15T08:31:23;22.03;;;17.33;;
15114;SDS011;7658;51.456;7.622;2024-01-15T08:33:50;18.70;;;16.23;;
15114;SDS011;7658;51.456;7.622;2024-01-15T08:36:15;25.87;;;17.63;;
15114;SDS011;7658;51.456;7.622;2024-01-15T08:38:41;20.23;;;16.93;;
15114;SDS011;7658;51.456;7.622;2024-01-15T08:41:07;22.67;;;17.70;;
15114;SDS011;7658;51.456;7.622;2024-01-15T08:43:34;23.27;;;17.60;;
15114;SDS011;7658;51.456;7.622;2024-01-15T08:46:00;27.23;;;19.23;;
15114;SDS011;7658;51.456;7.622;2024-01-15T08:48:26;26.53;;;19.00;;
15114;SDS011;7658;51.456;7.622;2024-01-15T08:50:52;26.10;;;19.30;;
15114;SDS011;7658;51.456;7.622;2024-01-15T08:53:19;22.53;;;18.53;;
15114;SDS011;7658;51.456;7.622;2024-01-15T08:55:45;25.07;;;18.33;;
15114;SDS011;7658;51.456;7.622;2024-01-15T08:58:11;23.97;;;18.90;;
15114;SDS011;7658;51.456;7.622;2024-01-15T09:00:37;24.57;;;18.43;;
15114;SDS011;7658;51.456;7.622;2024-01-15T09:03:03;24.37;;;19.33;;
15114;SDS011;7658;51.456;7.622;2024-01-15T09:05:29;23.97;;;17.80;;
15114;SDS011;7658;51.456;7.622;2024-01-15T09:07:55;19.23;;;15.77;;
15114;SDS011;7658;51.456;7.622;2024-01-15T09:10:21;22.60;;;17.27;;
15114;SDS011;7658;51.456;7.622;2024-01-15T09:12:47;19.77;;;17.00;;
15114;SDS011;7658;51.456;7.622;2024-01-15T09:15:14;19.87;;;16.93;;
15114;SDS011;7658;51.456;7.622;2024-01-15T09:17:40;19.87;;;17.13;;
15114;SDS011;7658;51.456;7.622;2024-01-15T09:20:06;21.43;;;15.83;;
15114;SDS011;7658;51.456;7.622;2024-01-15T09:22:32;18.33;;;16.37;;
15114;SDS011;7658;51.456;7.622;2024-01-15T09:24:58;19.77;;;17.17;;
15114;SDS011;7658;51.456;7.622;2024-01-15T09:27:24;18.67;;;16.67;;
15114;SDS011;7658;51.456;7.622;2024-01-15T09:29:53;19.13;;;16.80;;
15114;SDS011;7658;51.456;7.622;2024-01-15T09:32:19;19.03;;;16.90;;
15114;SDS011;7658;51.456;7.622;2024-01-15T09:34:48;19.27;;;15.80;;
15114;SDS011;7658;51.456;7.622;2024-01-15T09:37:14;18.30;;;16.23;;
15114;SDS011;7658;51.456;7.622;2024-01-15T09:39:40;20.57;;;17.20;;
15114;SDS011;7658;51.456;7.622;2024-01-15T09:42:06;18.67;;;16.37;;
15114;SDS011;7658;51.456;7.622;2024-01-15T09:44:33;19.77;;;17.17;;
15114;SDS011;7658;51.456;7.622;2024-01-15T09:46:59;21.57;;;17.90;;
15114;SDS011;7658;51.456;7.622;2024-01-15T09:49:25;19.13;;;16.40;;
15114;SDS011;7658;51.456;7.622;2024-01-15T09:51:51;21.53;;;17.57;;
15114;SDS011;7658;51.456;7.622;2024-01-15T09:54:17;18.80;;;16.63;;
15114;SDS011;7658;51.456;7.622;2024-01-15T09:56:46;21.67;;;16.67;;
15114;SDS011;7658;51.456;7.622;2024-01-15T09:59:16;21.60;;;18.00;;
15114;SDS011;7658;51.456;7.622;2024-01-15T10:01:43;20.97;;;17.13;;
15114;SDS011;7658;51.456;7.622;2024-01-15T10:04:10;22.83;;;16.87;;
15114;SDS011;7658;51.456;7.622;2024-01-15T10:06:43;22.03;;;16.97;;
15114;SDS011;7658;51.456;7.622;2024-01-15T10:09:13;21.53;;;17.97;;
15114;SDS011;7658;51.456;7.622;2024-01-15T10:11:41;21.80;;;16.50;;
15114;SDS011;7658;51.456;7.622;2024-01-15T10:14:08;22.07;;;16.90;;
15114;SDS011;7658;51.456;7.622;2024-01-15T10:16:35;21.47;;;17.63;;
15114;SDS011;7658;51.456;7.622;2024-01-15T10:19:00;24.10;;;19.37;;
15114;SDS011;7658;51.456;7.622;2024-01-15T10:21:26;19.87;;;16.10;;
15114;SDS011;7658;51.456;7.622;2024-01-15T10:23:52;18.70;;;15.97;;
15114;SDS011;7658;51.456;7.622;2024-01-15T10:26:18;20.07;;;16.00;;
15114;SDS011;7658;51.456;7.622;2024-01-15T10:28:51;16.43;;;14.73;;
15114;SDS011;7658;51.456;7.622;2024-01-15T10:31:20;15.43;;;13.93;;
15114;SDS011;7658;51.456;7.622;2024-01-15T10:33:49;15.27;;;13.47;;
15114;SDS011;7658;51.456;7.622;2024-01-15T10:36:15;15.83;;;14.20;;
15114;SDS011;7658;51.456;7.622;2024-01-15T10:38:46;14.53;;;13.13;;
15114;SDS011;7658;51.456;7.622;2024-01-15T10:41:12;14.87;;;13.37;;
15114;SDS011;7658;51.456;7.622;2024-01-15T10:43:38;16.07;;;14.27;;
15114;SDS011;7658;51.456;7.622;2024-01-15T10:46:06;15.07;;;13.47;;
15114;SDS011;7658;51.456;7.622;2024-01-15T10:48:32;15.33;;;13.73;;
15114;SDS011;7658;51.456;7.622;2024-01-15T10:51:00;14.37;;;12.83;;
15114;SDS011;7658;51.456;7.622;2024-01-15T10:53:35;14.97;;;13.20;;
15114;SDS011;7658;51.456;7.622;2024-01-15T10:56:07;15.97;;;13.40;;
15114;SDS011;7658;51.456;7.622;2024-01-15T10:58:35;15.23;;;13.63;;
15114;SDS011;7658;51.456;7.622;2024-01-15T11:01:04;15.80;;;13.57;;
15114;SDS011;7658;51.456;7.622;2024-01-15T11:03:30;14.87;;;13.27;;
15114;SDS011;7658;51.456;7.622;2024-01-15T11:05:57;18.63;;;13.70;;
15114;SDS011;7658;51.456;7.622;2024-01-15T11:08:23;17.13;;;14.40;;
15114;SDS011;7658;51.456;7.622;2024-01-15T11:10:50;16.80;;;15.03;;
15114;SDS011;7658;51.456;7.622;2024-01-15T11:16:07;17.13;;;14.87;;
15114;SDS011;7658;51.456;7.622;2024-01-15T11:18:35;18.73;;;15.37;;
15114;SDS011;7658;51.456;7.622;2024-01-15T11:23:44;19.83;;;15.00;;
15114;SDS011;7658;51.456;7.622;2024-01-15T11:26:38;19.33;;;15.03;;
15114;SDS011;7658;51.456;7.622;2024-01-15T11:29:10;16.50;;;14.77;;
15114;SDS011;7658;51.456;7.622;2024-01-15T11:37:23;15.67;;;14.10;;
15114;SDS011;7658;51.456;7.622;2024-01-15T11:39:51;16.63;;;14.83;;
15114;SDS011;7658;51.456;7.622;2024-01-15T11:42:19;16.83;;;14.43;;
15114;SDS011;7658;51.456;7.622;2024-01-15T11:44:46;16.73;;;13.67;;
15114;SDS011;7658;51.456;7.622;2024-01-15T11:47:13;18.77;;;14.37;;
15114;SDS011;7658;51.456;7.622;2024-01-15T11:52:37;16.10;;;14.40;;
15114;SDS011;7658;51.456;7.622;2024-01-15T11:55:11;16.27;;;14.00;;
15114;SDS011;7658;51.456;7.622;2024-01-15T11:57:49;15.73;;;13.83;;
15114;SDS011;7658;51.456;7.622;2024-01-15T12:00:16;18.23;;;14.33;;
15114;SDS011;7658;51.456;7.622;2024-01-15T12:02:43;15.53;;;13.90;;
15114;SDS011;7658;51.456;7.622;2024-01-15T12:05:11;15.93;;;14.37;;
15114;SDS011;7658;51.456;7.622;2024-01-15T12:07:42;16.07;;;14.10;;
15114;SDS011;7658;51.456;7.622;2024-01-15T12:10:12;17.37;;;13.53;;
15114;SDS011;7658;51.456;7.622;2024-01-15T12:15:29;16.03;;;14.30;;
15114;SDS011;7658;51.456;7.622;2024-01-15T12:17:56;19.00;;;13.73;;
15114;SDS011;7658;51.456;7.622;2024-01-15T12:20:24;13.93;;;12.47;;
15114;SDS011;7658;51.456;7.622;2024-01-15T12:22:51;14.20;;;12.90;;
15114;SDS011;7658;51.456;7.622;2024-01-15T12:25:17;14.13;;;12.03;;
15114;SDS011;7658;51.456;7.622;2024-01-15T12:27:42;13.73;;;12.33;;
15114;SDS011;7658;51.456;7.622;2024-01-15T12:30:12;14.30;;;11.87;;
15114;SDS011;7658;51.456;7.622;2024-01-15T12:32:40;16.63;;;11.80;;
15114;SDS011;7658;51.456;7.622;2024-01-15T12:35:11;12.77;;;11.47;;
15114;SDS011;7658;51.456;7.622;2024-01-15T12:37:38;12.27;;;11.03;;
15114;SDS011;7658;51.456;7.622;2024-01-15T12:40:04;12.43;;;10.90;;
15114;SDS011;7658;51.456;7.622;2024-01-15T12:42:37;13.40;;;11.00;;
15114;SDS011;7658;51.456;7.622;2024-01-15T12:45:06;14.67;;;12.20;;
15114;SDS011;7658;51.456;7.622;2024-01-15T12:47:35;18.37;;;12.87;;
15114;SDS011;7658;51.456;7.622;2024-01-15T12:50:02;13.60;;;12.20;;
15114;SDS011;7658;51.456;7.622;2024-01-15T12:52:31;14.03;;;12.40;;
15114;SDS011;7658;51.456;7.622;2024-01-15T12:54:57;15.57;;;12.13;;
15114;SDS011;7658;51.456;7.622;2024-01-15T12:57:23;16.50;;;12.67;;
15114;SDS011;7658;51.456;7.622;2024-01-15T12:59:49;19.37;;;13.97;;
15114;SDS011;7658;51.456;7.622;2024-01-15T13:02:15;16.67;;;13.43;;
15114;SDS011;7658;51.456;7.622;2024-01-15T13:04:44;15.33;;;13.73;;
15114;SDS011;7658;51.456;7.622;2024-01-15T13:07:09;14.57;;;13.07;;
15114;SDS011;7658;51.456;7.622;2024-01-15T13:09:35;14.83;;;13.27;;
15114;SDS011;7658;51.456;7.622;2024-01-15T13:12:02;18.77;;;13.53;;
15114;SDS011;7658;51.456;7.622;2024-01-15T13:14:28;15.97;;;13.93;;
15114;SDS011;7658;51.456;7.622;2024-01-15T13:16:53;14.73;;;13.37;;
15114;SDS011;7658;51.456;7.622;2024-01-15T13:19:20;16.87;;;13.57;;
15114;SDS011;7658;51.456;7.622;2024-01-15T13:21:48;20.33;;;13.10;;
15114;SDS011;7658;51.456;7.622;2024-01-15T13:24:18;14.63;;;13.10;;
15114;SDS011;7658;51.456;7.622;2024-01-15T13:26:44;15.23;;;13.50;;
15114;SDS011;7658;51.456;7.622;2024-01-15T13:29:10;13.87;;;12.30;;
15114;SDS011;7658;51.456;7.622;2024-01-15T13:31:36;13.67;;;12.40;;
15114;SDS011;7658;51.456;7.622;2024-01-15T13:34:03;16.53;;;13.53;;
15114;SDS011;7658;51.456;7.622;2024-01-15T13:36:29;17.10;;;13.67;;
15114;SDS011;7658;51.456;7.622;2024-01-15T13:38:54;15.23;;;12.80;;
15114;SDS011;7658;51.456;7.622;2024-01-15T13:41:21;14.00;;;12.50;;
15114;SDS011;7658;51.456;7.622;2024-01-15T13:43:50;15.43;;;13.07;;
15114;SDS011;7658;51.456;7.622;2024-01-15T13:46:17;17.37;;;13.27;;
15114;SDS011;7658;51.456;7.622;2024-01-15T13:48:51;13.73;;;12.53;;
15114;SDS011;7658;51.456;7.622;2024-01-15T13:51:18;13.90;;;12.30;;
15114;SDS011;7658;51.456;7.622;2024-01-15T13:53:43;14.43;;;12.93;;
15114;SDS011;7658;51.456;7.622;2024-01-15T13:56:09;13.47;;;12.30;;
15114;SDS011;7658;51.456;7.622;2024-01-15T13:58:35;14.30;;;12.90;;
15114;SDS011;7658;51.456;7.622;2024-01-15T14:01:02;15.87;;;12.47;;
15114;SDS011;7658;51.456;7.622;2024-01-15T14:03:31;13.63;;;12.23;;
15114;SDS011;7658;51.456;7.622;2024-01-15T14:05:58;13.77;;;12.37;;
15114;SDS011;7658;51.456;7.622;2024-01-15T14:08:23;13.33;;;12.03;;
15114;SDS011;7658;51.456;7.622;2024-01-15T14:10:50;13.10;;;11.70;;
15114;SDS011;7658;51.456;7.622;2024-01-15T14:13:16;21.07;;;13.30;;
15114;SDS011;7658;51.456;7.622;2024-01-15T14:15:42;15.00;;;12.37;;
15114;SDS011;7658;51.456;7.622;2024-01-15T14:18:08;17.17;;;13.93;;
15114;SDS011;7658;51.456;7.622;2024-01-15T14:20:34;16.00;;;13.17;;
15114;SDS011;7658;51.456;7.622;2024-01-15T14:22:59;15.30;;;13.43;;
15114;SDS011;7658;51.456;7.622;2024-01-15T14:25:25;16.13;;;14.10;;
15114;SDS011;7658;51.456;7.622;2024-01-15T14:27:51;15.30;;;13.20;;
15114;SDS011;7658;51.456;7.622;2024-01-15T14:30:17;16.80;;;13.40;;
15114;SDS011;7658;51.456;7.622;2024-01-15T14:32:43;18.10;;;13.57;;
15114;SDS011;7658;51.456;7.622;2024-01-15T14:35:09;19.90;;;13.83;;
15114;SDS011;7658;51.456;7.622;2024-01-15T14:37:38;14.33;;;13.00;;
15114;SDS011;7658;51.456;7.622;2024-01-15T14:40:05;14.47;;;13.07;;
15114;SDS011;7658;51.456;7.622;2024-01-15T14:42:35;14.57;;;13.23;;
15114;SDS011;7658;51.456;7.622;2024-01-15T14:45:02;16.10;;;14.07;;